Time;durP1;ratioP1;P1;durP2;ratioP2;P2;SDS_P1;SDS_P2;PMS_P1;PMS_P2;Temp;Humidity;BMP_temperature;BMP_pressure;BME280_temperature;BME280_humidity;BME280_pressure;Samples;Min_cycle;Max_cycle;Signal;HPM_P1;HPM_P2
2024/04/03 00:06:44;;;;;;;;;;;11.00;99.90;;;;;;6741189;88;20056;-78
2024/04/03 00:16:44;;;;;;;;;;;10.60;99.90;;;;;;6742288;88;20669;-78
2024/04/03 00:26:45;;;;;;;;;;;10.30;99.90;;;;;;6740625;88;20154;-77
2024/04/03 00:36:45;;;;;;;;;;;10.20;99.90;;;;;;6737742;88;20659;-77
2024/04/03 00:46:46;;;;;;;;;;;10.10;99.90;;;;;;6738106;88;20053;-77
2024/04/03 00:56:47;;;;;;;;;;;10.10;99.90;;;;;;6736589;88;20079;-77
2024/04/03 01:06:47;;;;;;;;;;;10.00;99.90;;;;;;6737777;88;20083;-78
2024/04/03 01:16:48;;;;;;;;;;;9.90;99.90;;;;;;6736679;88;20126;-78
2024/04/03 01:26:48;;;;;;;;;;;9.80;99.90;;;;;;6736246;88;20050;-77
2024/04/03 01:36:48;;;;;;;;;;;9.80;99.90;;;;;;6734827;88;20066;-77
2024/04/03 01:46:49;;;;;;;;;;;9.70;99.90;;;;;;6737739;88;20394;-77
2024/04/03 01:56:49;;;;;;;;;;;9.60;99.90;;;;;;6715956;77;20244;-77
2024/04/03 02:06:50;;;;;;;;;;;9.60;99.90;;;;;;6652990;88;20503;-77
2024/04/03 02:16:50;;;;;;;;;;;9.60;99.90;;;;;;6661744;88;20043;-78
2024/04/03 02:26:51;;;;;;;;;;;9.70;99.90;;;;;;6664609;88;20246;-78
2024/04/03 02:36:51;;;;;;;;;;;9.80;99.90;;;;;;6635917;89;20078;-77
2024/04/03 02:46:51;;;;;;;;;;;9.80;99.90;;;;;;6653899;88;20567;-78
2024/04/03 02:56:53;;;;;;;;;;;9.70;99.90;;;;;;6672733;88;20059;-78
2024/04/03 03:06:53;;;;;;;;;;;9.70;99.90;;;;;;6668204;88;20072;-77
2024/04/03 03:16:54;;;;;;;;;;;9.70;99.90;;;;;;6654148;88;20133;-77
2024/04/03 03:26:54;;;;;;;;;;;9.60;99.90;;;;;;6652984;88;20070;-77
2024/04/03 03:36:55;;;;;;;;;;;9.60;99.90;;;;;;6640554;89;20076;-78
2024/04/03 03:46:55;;;;;;;;;;;9.50;99.90;;;;;;6650117;88;20603;-78
2024/04/03 03:56:56;;;;;;;;;;;9.50;99.90;;;;;;6667106;88;20203;-77
2024/04/03 04:06:56;;;;;;;;;;;9.50;99.90;;;;;;6661156;88;20186;-78
2024/04/03 04:16:57;;;;;;;;;;;9.60;99.90;;;;;;6680854;88;20069;-78
2024/04/03 04:27:01;;;;;;;;;;;9.60;99.90;;;;;;6656082;88;20082;-78
2024/04/03 04:37:02;;;;;;;;;;;9.60;99.90;;;;;;6644914;88;20074;-77
2024/04/03 04:47:03;;;;;;;;;;;9.60;99.90;;;;;;6653887;88;20520;-78
2024/04/03 04:57:09;;;;;;;;;;;9.50;99.90;;;;;;6675244;88;20138;-77
2024/04/03 05:07:10;;;;;;;;;;;9.60;99.90;;;;;;6649276;88;20207;-78
2024/04/03 05:17:10;;;;;;;;;;;9.50;99.90;;;;;;6660334;88;20119;-76
2024/04/03 05:27:11;;;;;;;;;;;9.60;99.90;;;;;;6667466;88;20464;-77
2024/04/03 05:37:11;;;;;;;;;;;9.50;99.90;;;;;;6662477;88;20107;-77
2024/04/03 05:47:12;;;;;;;;;;;9.50;99.90;;;;;;6642708;89;20071;-76
2024/04/03 05:57:13;;;;;;;;;;;9.50;99.90;;;;;;6637707;89;20087;-77
2024/04/03 06:07:13;;;;;;;;;;;9.50;99.90;;;;;;6634561;89;20517;-77
2024/04/03 06:17:13;;;;;;;;;;;9.60;99.90;;;;;;6678511;88;20188;-77
2024/04/03 06:27:14;;;;;;;;;;;9.70;99.90;;;;;;6668618;88;20494;-77
2024/04/03 06:37:14;;;;;;;;;;;9.80;99.90;;;;;;6635754;89;20069;-76
2024/04/03 06:47:16;;;;;;;;;;;9.90;99.90;;;;;;6652799;88;20088;-76
2024/04/03 06:57:17;;;;;;;;;;;10.00;99.90;;;;;;6657471;88;20070;-77
2024/04/03 07:07:17;;;;;;;;;;;10.00;99.90;;;;;;6668196;88;20078;-77
2024/04/03 07:17:17;;;;;;;;;;;10.00;99.90;;;;;;6653604;88;20083;-78
2024/04/03 07:27:25;;;;;;;;;;;10.00;99.90;;;;;;6677902;88;20474;-77
2024/04/03 07:37:26;;;;;;;;;;;10.10;99.90;;;;;;6650978;88;20178;-78
2024/04/03 07:47:27;;;;;;;;;;;10.20;99.90;;;;;;6659737;88;20170;-76
2024/04/03 07:57:27;;;;;;;;;;;10.30;99.90;;;;;;6704877;77;20051;-77
2024/04/03 08:07:28;;;;;;;;;;;10.40;99.90;;;;;;6680603;88;20057;-77
2024/04/03 08:17:29;;;;;;;;;;;10.60;99.90;;;;;;6715264;88;20126;-77
2024/04/03 08:27:32;;;;;;;;;;;10.70;99.90;;;;;;6703612;88;20111;-77
2024/04/03 08:37:33;;;;;;;;;;;10.90;99.90;;;;;;6678129;88;20054;-79
2024/04/03 08:47:34;;;;;;;;;;;11.40;99.90;;;;;;6695955;88;20106;-77
2024/04/03 08:57:35;;;;;;;;;;;11.60;99.90;;;;;;6704803;88;20104;-76
2024/04/03 09:07:35;;;;;;;;;;;11.50;99.90;;;;;;6681306;88;20161;-78
2024/04/03 09:17:36;;;;;;;;;;;11.50;99.90;;;;;;6707298;88;20076;-77
2024/04/03 09:27:37;;;;;;;;;;;11.40;99.90;;;;;;6699885;88;20532;-78
2024/04/03 09:37:37;;;;;;;;;;;11.30;99.90;;;;;;6675302;88;20059;-77
2024/04/03 09:47:40;;;;;;;;;;;11.50;99.90;;;;;;6720643;88;20511;-77
2024/04/03 09:57:40;;;;;;;;;;;11.40;99.90;;;;;;6697356;88;20120;-77
2024/04/03 10:07:41;;;;;;;;;;;11.50;99.90;;;;;;6699623;88;20102;-78
2024/04/03 10:17:46;;;;;;;;;;;11.40;99.90;;;;;;6714412;88;20087;-78
2024/04/03 10:27:46;;;;;;;;;;;11.40;99.90;;;;;;6700263;88;20085;-77
2024/04/03 10:37:47;;;;;;;;;;;11.40;99.90;;;;;;6688354;88;20520;-77
2024/04/03 10:47:48;;;;;;;;;;;11.50;99.90;;;;;;6710573;88;20067;-78
2024/04/03 10:57:48;;;;;;;;;;;11.80;99.90;;;;;;6713850;88;20100;-77
2024/04/03 11:07:49;;;;;;;;;;;12.00;99.90;;;;;;6669590;88;20082;-77
2024/04/03 11:17:49;;;;;;;;;;;12.10;99.90;;;;;;6712909;88;20083;-76
2024/04/03 11:27:50;;;;;;;;;;;12.00;99.90;;;;;;6716265;88;20059;-77
2024/04/03 11:37:51;;;;;;;;;;;12.00;99.90;;;;;;6692831;88;20082;-78
2024/04/03 11:47:51;;;;;;;;;;;11.90;99.90;;;;;;6699993;88;20090;-77
2024/04/03 11:57:52;;;;;;;;;;;12.30;99.90;;;;;;6722657;88;20094;-78
2024/04/03 12:07:52;;;;;;;;;;;12.60;99.90;;;;;;6688396;88;20604;-78
2024/04/03 12:17:53;;;;;;;;;;;12.60;99.90;;;;;;6702417;88;20067;-78
2024/04/03 12:27:53;;;;;;;;;;;12.60;99.90;;;;;;6705114;88;20103;-77
2024/04/03 12:37:54;;;;;;;;;;;12.70;99.90;;;;;;6648357;88;20460;-77
2024/04/03 12:47:54;;;;;;;;;;;12.80;99.90;;;;;;6645294;88;20062;-77
2024/04/03 12:57:55;;;;;;;;;;;13.00;99.90;;;;;;6647887;88;20233;-77
2024/04/03 13:07:56;;;;;;;;;;;13.10;99.90;;;;;;6641580;88;20514;-77
2024/04/03 13:17:56;;;;;;;;;;;13.20;99.90;;;;;;6690958;88;20088;-77
2024/04/03 13:27:57;;;;;;;;;;;13.40;99.90;;;;;;6705798;88;20108;-77
2024/04/03 13:37:57;;;;;;;;;;;13.80;99.90;;;;;;6691944;88;20079;-78
2024/04/03 13:47:59;;;;;;;;;;;14.40;99.90;;;;;;6697842;88;20076;-77
2024/04/03 13:58:19;;;;;;;;;;;14.20;99.90;;;;;;6726367;77;20139;-78
2024/04/03 14:08:20;;;;;;;;;;;14.60;99.90;;;;;;6656627;89;20087;-76
2024/04/03 14:18:20;;;;;;;;;;;14.30;99.90;;;;;;6653082;89;20080;-78
2024/04/03 14:28:21;;;;;;;;;;;14.20;99.90;;;;;;6653726;88;20061;-78
2024/04/03 14:38:23;;;;;;;;;;;14.40;99.90;;;;;;6655518;89;20058;-78
2024/04/03 14:48:23;;;;;;;;;;;14.40;99.90;;;;;;6658108;89;20131;-78
2024/04/03 14:58:24;;;;;;;;;;;14.60;99.90;;;;;;6655141;89;20084;-79
2024/04/03 15:08:24;;;;;;;;;;;14.60;99.90;;;;;;6659323;89;20078;-78
2024/04/03 15:18:25;;;;;;;;;;;14.70;99.90;;;;;;6652504;88;20586;-78
2024/04/03 15:28:25;;;;;;;;;;;15.00;99.90;;;;;;6654028;89;20123;-79
2024/04/03 15:38:25;;;;;;;;;;;15.30;99.90;;;;;;6654472;89;20066;-77
2024/04/03 15:48:26;;;;;;;;;;;15.00;99.90;;;;;;6654322;89;20165;-77
2024/04/03 15:58:28;;;;;;;;;;;15.20;99.90;;;;;;6640100;89;20161;-77
2024/04/03 16:08:28;;;;;;;;;;;15.10;99.90;;;;;;6647488;89;20113;-76
2024/04/03 16:18:29;;;;;;;;;;;14.90;99.90;;;;;;6653651;89;20098;-77
2024/04/03 16:28:29;;;;;;;;;;;14.90;99.90;;;;;;6654775;89;20050;-77
2024/04/03 16:38:30;;;;;;;;;;;14.80;99.90;;;;;;6654230;89;20187;-77
2024/04/03 16:48:30;;;;;;;;;;;14.90;99.90;;;;;;6653950;88;20553;-76
2024/04/03 16:58:31;;;;;;;;;;;14.80;99.90;;;;;;6655084;88;20165;-78
2024/04/03 17:08:36;;;;;;;;;;;14.70;99.90;;;;;;6662242;89;20074;-78
2024/04/03 17:18:36;;;;;;;;;;;14.70;99.90;;;;;;6656491;89;20194;-77
2024/04/03 17:28:37;;;;;;;;;;;14.30;99.90;;;;;;6654897;89;20064;-77
2024/04/03 17:38:38;;;;;;;;;;;14.10;99.90;;;;;;6653077;89;20167;-78
2024/04/03 17:48:38;;;;;;;;;;;14.10;99.90;;;;;;6659672;89;20088;-78
2024/04/03 17:58:39;;;;;;;;;;;14.10;99.90;;;;;;6651744;88;20649;-77
2024/04/03 18:08:39;;;;;;;;;;;14.10;99.90;;;;;;6655706;89;20108;-78
2024/04/03 18:18:40;;;;;;;;;;;14.00;99.90;;;;;;6669404;88;20046;-77
2024/04/03 18:28:40;;;;;;;;;;;14.00;99.90;;;;;;6656608;89;20065;-78
2024/04/03 18:38:41;;;;;;;;;;;14.00;99.90;;;;;;6650198;89;20574;-78
2024/04/03 18:48:41;;;;;;;;;;;13.80;99.90;;;;;;6651166;89;20079;-78
2024/04/03 18:58:42;;;;;;;;;;;13.20;99.90;;;;;;6656608;89;20069;-78
2024/04/03 19:08:42;;;;;;;;;;;12.70;99.90;;;;;;6653125;89;20082;-77
2024/04/03 19:18:43;;;;;;;;;;;12.40;99.90;;;;;;6649621;89;20485;-78
2024/04/03 19:28:44;;;;;;;;;;;12.30;99.90;;;;;;6649289;89;20071;-78
2024/04/03 19:38:44;;;;;;;;;;;12.00;99.90;;;;;;6652783;89;20046;-79
2024/04/03 19:48:44;;;;;;;;;;;11.90;99.90;;;;;;6654297;88;20066;-78
2024/04/03 19:58:45;;;;;;;;;;;11.90;99.90;;;;;;6656350;78;20451;-77
2024/04/03 20:08:46;;;;;;;;;;;11.80;99.90;;;;;;6646622;89;20096;-76
2024/04/03 20:18:46;;;;;;;;;;;11.60;99.90;;;;;;6645547;89;20074;-77
2024/04/03 20:28:47;;;;;;;;;;;11.60;99.90;;;;;;6648111;89;20541;-77
2024/04/03 20:38:47;;;;;;;;;;;11.60;99.90;;;;;;6655358;89;20066;-77
2024/04/03 20:48:48;;;;;;;;;;;11.60;99.90;;;;;;6649884;89;20191;-77
2024/04/03 20:58:48;;;;;;;;;;;11.50;99.90;;;;;;6648291;89;20073;-77
2024/04/03 21:08:49;;;;;;;;;;;11.30;99.90;;;;;;6653766;89;20133;-78
2024/04/03 21:18:49;;;;;;;;;;;11.20;99.90;;;;;;6653298;89;20064;-78
2024/04/03 21:28:50;;;;;;;;;;;11.00;99.90;;;;;;6649024;89;20462;-79
2024/04/03 21:38:50;;;;;;;;;;;10.90;99.90;;;;;;6651608;89;20062;-78
2024/04/03 21:48:51;;;;;;;;;;;10.90;99.90;;;;;;6648453;89;20137;-76
2024/04/03 21:58:51;;;;;;;;;;;11.00;99.90;;;;;;6648333;89;21456;-77
2024/04/03 22:08:52;;;;;;;;;;;11.00;99.90;;;;;;6641382;89;20114;-77
2024/04/03 22:18:52;;;;;;;;;;;10.80;99.90;;;;;;6647260;89;20065;-78
2024/04/03 22:28:53;;;;;;;;;;;10.80;99.90;;;;;;6641900;89;20064;-78
2024/04/03 22:38:54;;;;;;;;;;;10.70;99.90;;;;;;6636708;89;20184;-77
2024/04/03 22:48:55;;;;;;;;;;;10.80;99.90;;;;;;6633192;89;20055;-77
2024/04/03 22:58:56;;;;;;;;;;;10.60;99.90;;;;;;6644716;89;20084;-77
2024/04/03 23:08:57;;;;;;;;;;;10.70;99.90;;;;;;6648231;89;20483;-77
2024/04/03 23:18:58;;;;;;;;;;;10.60;99.90;;;;;;6647679;89;20088;-78
2024/04/03 23:28:58;;;;;;;;;;;10.20;99.90;;;;;;6652746;89;20053;-77
2024/04/03 23:38:59;;;;;;;;;;;9.80;99.90;;;;;;6648963;89;20080;-77
2024/04/03 23:48:59;;;;;;;;;;;9.30;99.90;;;;;;6648934;89;20053;-77
2024/04/03 23:59:00;;;;;;;;;;;9.10;99.90;;;;;;6647836;89;20131;-77
